Time,TemperatureF,DewpointF,PressureIn,WindDirection,WindDirectionDegrees,WindSpeedMPH,WindSpeedGustMPH,Humidity,HourlyPrecipIn,Conditions,Clouds,dailyrainin,SoftwareType,DateUTC
2013-02-21 00:01:00,18.5,13.4,29.73,North,360,4.0,4.0,80,0.00,,,0.00,Wunderground v.1.15,2013-02-21 05:01:00,
2013-02-21 00:06:00,18.4,13.5,29.73,SSW,209,4.0,4.0,81,0.00,,,0.00,Wunderground v.1.15,2013-02-21 05:06:00,
2013-02-21 00:10:00,18.3,13.4,29.73,NE,52,3.0,3.0,81,0.00,,,0.00,Wunderground v.1.15,2013-02-21 05:10:00,
2013-02-21 00:15:00,18.2,13.3,29.74,SSE,157,1.0,3.0,81,0.00,,,0.00,Wunderground v.1.15,2013-02-21 05:15:00,
2013-02-21 00:20:00,18.1,12.7,29.74,North,355,2.0,7.0,79,0.00,,,0.00,Wunderground v.1.15,2013-02-21 05:20:00,
2013-02-21 00:31:00,17.6,12.5,29.74,NNW,346,4.0,4.0,80,0.00,,,0.00,Wunderground v.1.15,2013-02-21 05:31:00,
2013-02-21 00:36:00,17.4,12.0,29.75,South,191,3.0,4.0,79,0.00,,,0.00,Wunderground v.1.15,2013-02-21 05:36:00,
2013-02-21 00:41:00,17.0,11.0,29.75,NW,324,4.0,6.0,77,0.00,,,0.00,Wunderground v.1.15,2013-02-21 05:41:00,
2013-02-21 00:46:00,16.5,10.5,29.75,West,264,5.0,10.0,77,0.00,,,0.00,Wunderground v.1.15,2013-02-21 05:46:00,
2013-02-21 00:51:00,15.9,10.0,29.75,West,266,6.0,10.0,77,0.00,,,0.00,Wunderground v.1.15,2013-02-21 05:51:00,
2013-02-21 00:56:00,15.4,9.2,29.75,WSW,242,8.0,14.0,76,0.00,,,0.00,Wunderground v.1.15,2013-02-21 05:56:00,
2013-02-21 01:06:00,14.9,9.0,29.75,WSW,256,8.0,9.0,77,0.00,,,0.00,Wunderground v.1.15,2013-02-21 06:06:00,
2013-02-21 01:11:00,14.8,9.2,29.75,NW,307,6.0,9.0,78,0.00,,,0.00,Wunderground v.1.15,2013-02-21 06:11:00,
2013-02-21 01:15:00,14.8,9.2,29.76,SSW,208,5.0,5.0,78,0.00,,,0.00,Wunderground v.1.15,2013-02-21 06:15:00,
2013-02-21 01:21:00,14.6,9.0,29.76,WSW,257,5.0,5.0,78,0.00,,,0.00,Wunderground v.1.15,2013-02-21 06:21:00,
2013-02-21 01:36:00,14.3,8.7,29.77,WSW,252,5.0,5.0,78,0.00,,,0.00,Wunderground v.1.15,2013-02-21 06:36:00,
2013-02-21 01:41:00,14.1,8.8,29.76,SSW,213,6.0,6.0,79,0.00,,,0.00,Wunderground v.1.15,2013-02-21 06:41:00,
2013-02-21 01:46:00,13.9,8.6,29.77,NW,315,5.0,5.0,79,0.00,,,0.00,Wunderground v.1.15,2013-02-21 06:46:00,
2013-02-21 01:50:00,13.6,8.0,29.77,WNW,301,5.0,9.0,78,0.00,,,0.00,Wunderground v.1.15,2013-02-21 06:50:00,
2013-02-21 01:55:00,13.3,7.7,29.77,SW,222,6.0,6.0,78,0.00,,,0.00,Wunderground v.1.15,2013-02-21 06:55:00,
2013-02-21 02:01:00,13.0,7.4,29.77,SW,222,6.0,6.0,78,0.00,,,0.00,Wunderground v.1.15,2013-02-21 07:01:00,
2013-02-21 02:06:00,12.8,6.9,29.77,SSW,211,5.0,6.0,77,0.00,,,0.00,Wunderground v.1.15,2013-02-21 07:06:00,
2013-02-21 02:15:00,12.5,6.7,29.77,WSW,250,6.0,9.0,77,0.00,,,0.00,Wunderground v.1.15,2013-02-21 07:15:00,
2013-02-21 02:20:00,12.4,6.6,29.78,West,276,6.0,9.0,77,0.00,,,0.00,Wunderground v.1.15,2013-02-21 07:20:00,
2013-02-21 02:31:00,12.1,6.3,29.78,North,351,4.0,5.0,77,0.00,,,0.00,Wunderground v.1.15,2013-02-21 07:31:00,
2013-02-21 02:36:00,12.0,6.2,29.78,West,267,3.0,3.0,77,0.00,,,0.00,Wunderground v.1.15,2013-02-21 07:36:00,
2013-02-21 02:41:00,11.9,6.1,29.78,WNW,302,2.0,4.0,77,0.00,,,0.00,Wunderground v.1.15,2013-02-21 07:41:00,
2013-02-21 02:46:00,11.8,6.0,29.78,WSW,245,3.0,5.0,77,0.00,,,0.00,Wunderground v.1.15,2013-02-21 07:46:00,
2013-02-21 02:51:00,11.8,5.7,29.78,West,279,4.0,5.0,76,0.00,,,0.00,Wunderground v.1.15,2013-02-21 07:51:00,
2013-02-21 03:00:00,11.4,5.3,29.78,WNW,294,4.0,4.0,76,0.00,,,0.00,Wunderground v.1.15,2013-02-21 08:00:00,
2013-02-21 03:06:00,11.2,5.1,29.77,WSW,255,5.0,8.0,76,0.00,,,0.00,Wunderground v.1.15,2013-02-21 08:06:00,
2013-02-21 03:11:00,11.0,4.9,29.77,West,264,5.0,5.0,76,0.00,,,0.00,Wunderground v.1.15,2013-02-21 08:11:00,
2013-02-21 03:15:00,10.8,4.7,29.77,NNW,333,6.0,6.0,76,0.00,,,0.00,Wunderground v.1.15,2013-02-21 08:15:00,
2013-02-21 03:20:00,10.7,4.6,29.77,SW,214,6.0,8.0,76,0.00,,,0.00,Wunderground v.1.15,2013-02-21 08:20:00,
2013-02-21 03:25:00,10.7,4.3,29.77,SW,229,6.0,8.0,75,0.00,,,0.00,Wunderground v.1.15,2013-02-21 08:25:00,
2013-02-21 03:40:00,10.6,4.2,29.77,NNW,335,6.0,6.0,75,0.00,,,0.00,Wunderground v.1.15,2013-02-21 08:40:00,
2013-02-21 03:46:00,10.5,4.1,29.77,NW,308,5.0,6.0,75,0.00,,,0.00,Wunderground v.1.15,2013-02-21 08:46:00,
2013-02-21 03:51:00,10.4,4.0,29.78,WSW,250,4.0,4.0,75,0.00,,,0.00,Wunderground v.1.15,2013-02-21 08:51:00,
2013-02-21 03:56:00,10.3,3.9,29.78,NNW,331,4.0,4.0,75,0.00,,,0.00,Wunderground v.1.15,2013-02-21 08:56:00,
2013-02-21 04:01:00,10.2,3.8,29.78,NNW,342,6.0,7.0,75,0.00,,,0.00,Wunderground v.1.15,2013-02-21 09:01:00,
2013-02-21 04:10:00,10.0,3.7,29.80,NW,306,5.0,5.0,75,0.00,,,0.00,Wunderground v.1.15,2013-02-21 09:10:00,
2013-02-21 04:16:00,9.9,3.6,29.80,NW,319,5.0,5.0,75,0.00,,,0.00,Wunderground v.1.15,2013-02-21 09:16:00,
2013-02-21 04:21:00,9.8,3.7,29.81,NNW,340,4.0,4.0,76,0.00,,,0.00,Wunderground v.1.15,2013-02-21 09:21:00,
2013-02-21 04:26:00,9.7,3.9,29.81,NNW,344,4.0,10.0,77,0.00,,,0.00,Wunderground v.1.15,2013-02-21 09:26:00,
2013-02-21 04:30:00,9.6,3.8,29.81,NW,325,4.0,4.0,77,0.00,,,0.00,Wunderground v.1.15,2013-02-21 09:30:00,
2013-02-21 04:35:00,9.5,3.7,29.80,SSW,198,3.0,5.0,77,0.00,,,0.00,Wunderground v.1.15,2013-02-21 09:35:00,
2013-02-21 04:40:00,9.4,3.6,29.80,WSW,238,2.0,2.0,77,0.00,,,0.00,Wunderground v.1.15,2013-02-21 09:40:00,
2013-02-21 04:50:00,9.2,3.7,29.81,North,355,2.0,3.0,78,0.00,,,0.00,Wunderground v.1.15,2013-02-21 09:50:00,
2013-02-21 04:56:00,9.1,3.4,29.82,NW,306,2.0,3.0,77,0.00,,,0.00,Wunderground v.1.15,2013-02-21 09:56:00,
2013-02-21 05:01:00,8.9,3.2,29.82,WNW,300,3.0,3.0,77,0.00,,,0.00,Wunderground v.1.15,2013-02-21 10:01:00,
2013-02-21 05:11:00,8.6,2.9,29.82,NW,313,3.0,4.0,77,0.00,,,0.00,Wunderground v.1.15,2013-02-21 10:11:00,
2013-02-21 05:15:00,8.5,3.0,29.82,WNW,290,4.0,4.0,78,0.00,,,0.00,Wunderground v.1.15,2013-02-21 10:15:00,
2013-02-21 05:20:00,8.3,2.9,29.83,NW,314,3.0,3.0,78,0.00,,,0.00,Wunderground v.1.15,2013-02-21 10:20:00,
2013-02-21 05:25:00,8.3,3.1,29.82,North,9,2.0,3.0,79,0.00,,,0.00,Wunderground v.1.15,2013-02-21 10:25:00,
2013-02-21 05:41:00,7.8,2.9,29.83,WNW,284,3.0,4.0,80,0.00,,,0.00,Wunderground v.1.15,2013-02-21 10:41:00,
2013-02-21 05:50:00,7.7,2.8,29.84,NW,322,2.0,2.0,80,0.00,,,0.00,Wunderground v.1.15,2013-02-21 10:50:00,
2013-02-21 06:01:00,7.6,2.7,29.84,NW,326,2.0,4.0,80,0.00,,,0.00,Wunderground v.1.15,2013-02-21 11:01:00,
2013-02-21 06:16:00,7.4,2.5,29.85,SW,236,2.0,2.0,80,0.00,,,0.00,Wunderground v.1.15,2013-02-21 11:16:00,
2013-02-21 06:20:00,7.4,2.3,29.85,SSW,209,2.0,6.0,79,0.00,,,0.00,Wunderground v.1.15,2013-02-21 11:20:00,
2013-02-21 06:25:00,7.4,2.3,29.85,WSW,258,3.0,3.0,79,0.00,,,0.00,Wunderground v.1.15,2013-02-21 11:25:00,
2013-02-21 06:35:00,7.2,1.8,29.86,WSW,250,3.0,3.0,78,0.00,,,0.00,Wunderground v.1.15,2013-02-21 11:35:00,
2013-02-21 06:40:00,7.1,1.7,29.86,SSW,207,3.0,3.0,78,0.00,,,0.00,Wunderground v.1.15,2013-02-21 11:40:00,
2013-02-21 06:51:00,6.8,1.1,29.87,West,261,3.0,3.0,77,0.00,,,0.00,Wunderground v.1.15,2013-02-21 11:51:00,
2013-02-21 06:56:00,6.8,1.1,29.87,West,280,4.0,5.0,77,0.00,,,0.00,Wunderground v.1.15,2013-02-21 11:56:00,
2013-02-21 07:01:00,6.7,1.0,29.87,NNW,342,4.0,4.0,77,0.00,,,0.00,Wunderground v.1.15,2013-02-21 12:01:00,
2013-02-21 07:10:00,6.6,0.9,29.88,SW,234,4.0,7.0,77,0.00,,,0.00,Wunderground v.1.15,2013-02-21 12:10:00,
2013-02-21 07:16:00,6.5,0.8,29.88,NW,326,4.0,7.0,77,0.00,,,0.00,Wunderground v.1.15,2013-02-21 12:16:00,
2013-02-21 07:21:00,6.5,0.8,29.88,WNW,287,5.0,5.0,77,0.00,,,0.00,Wunderground v.1.15,2013-02-21 12:21:00,
2013-02-21 07:31:00,6.7,0.7,29.89,NW,304,4.0,4.0,76,0.00,,,0.00,Wunderground v.1.15,2013-02-21 12:31:00,
2013-02-21 07:41:00,6.7,0.7,29.90,WSW,244,4.0,9.0,76,0.00,,,0.00,Wunderground v.1.15,2013-02-21 12:41:00,
2013-02-21 07:46:00,6.8,0.6,29.90,SW,234,5.0,9.0,75,0.00,,,0.00,Wunderground v.1.15,2013-02-21 12:46:00,
2013-02-21 07:51:00,6.7,0.5,29.90,West,265,5.0,5.0,75,0.00,,,0.00,Wunderground v.1.15,2013-02-21 12:51:00,
2013-02-21 07:56:00,6.7,0.7,29.90,SW,234,4.0,5.0,76,0.00,,,0.00,Wunderground v.1.15,2013-02-21 12:56:00,
2013-02-21 08:01:00,6.7,0.7,29.90,WSW,244,4.0,4.0,76,0.00,,,0.00,Wunderground v.1.15,2013-02-21 13:01:00,
2013-02-21 08:06:00,6.7,0.5,29.91,WNW,300,5.0,5.0,75,0.00,,,0.00,Wunderground v.1.15,2013-02-21 13:06:00,
2013-02-21 08:11:00,6.9,0.9,29.91,WNW,288,5.0,5.0,76,0.00,,,0.00,Wunderground v.1.15,2013-02-21 13:11:00,
2013-02-21 08:16:00,7.1,1.1,29.91,West,261,4.0,5.0,76,0.00,,,0.00,Wunderground v.1.15,2013-02-21 13:16:00,
2013-02-21 08:25:00,7.1,1.1,29.91,SW,236,5.0,5.0,76,0.00,,,0.00,Wunderground v.1.15,2013-02-21 13:25:00,
2013-02-21 08:31:00,7.2,1.2,29.92,SW,234,5.0,6.0,76,0.00,,,0.00,Wunderground v.1.15,2013-02-21 13:31:00,
2013-02-21 08:36:00,7.3,1.3,29.92,SW,236,4.0,4.0,76,0.00,,,0.00,Wunderground v.1.15,2013-02-21 13:36:00,
2013-02-21 08:41:00,7.4,1.1,29.92,NW,323,4.0,8.0,75,0.00,,,0.00,Wunderground v.1.15,2013-02-21 13:41:00,
2013-02-21 08:46:00,7.5,1.2,29.92,South,181,4.0,9.0,75,0.00,,,0.00,Wunderground v.1.15,2013-02-21 13:46:00,
2013-02-21 08:51:00,7.5,1.2,29.92,WNW,282,4.0,9.0,75,0.00,,,0.00,Wunderground v.1.15,2013-02-21 13:51:00,
2013-02-21 08:55:00,7.7,1.4,29.93,WSW,240,3.0,3.0,75,0.00,,,0.00,Wunderground v.1.15,2013-02-21 13:55:00,
2013-02-21 09:10:00,7.7,1.4,29.93,WNW,291,4.0,7.0,75,0.00,,,0.00,Wunderground v.1.15,2013-02-21 14:10:00,
2013-02-21 09:16:00,7.7,1.4,29.93,West,273,4.0,7.0,75,0.00,,,0.00,Wunderground v.1.15,2013-02-21 14:16:00,
2013-02-21 09:21:00,8.0,1.7,29.93,NW,306,4.0,4.0,75,0.00,,,0.00,Wunderground v.1.15,2013-02-21 14:21:00,
2013-02-21 09:30:00,8.8,2.2,29.93,North,355,2.0,2.0,74,0.00,,,0.00,Wunderground v.1.15,2013-02-21 14:30:00,
2013-02-21 09:35:00,9.2,2.6,29.94,West,267,2.0,5.0,74,0.00,,,0.00,Wunderground v.1.15,2013-02-21 14:35:00,
2013-02-21 09:41:00,9.0,2.4,29.94,WNW,298,4.0,4.0,74,0.00,,,0.00,Wunderground v.1.15,2013-02-21 14:41:00,
2013-02-21 09:45:00,9.2,2.6,29.94,WSW,244,4.0,9.0,74,0.00,,,0.00,Wunderground v.1.15,2013-02-21 14:45:00,
2013-02-21 09:50:00,9.4,2.8,29.94,West,276,3.0,6.0,74,0.00,,,0.00,Wunderground v.1.15,2013-02-21 14:50:00,
2013-02-21 10:01:00,10.0,3.4,29.94,SW,218,3.0,5.0,74,0.00,,,0.00,Wunderground v.1.15,2013-02-21 15:01:00,
2013-02-21 10:06:00,10.0,3.4,29.94,WSW,241,3.0,5.0,74,0.00,,,0.00,Wunderground v.1.15,2013-02-21 15:06:00,
2013-02-21 10:11:00,10.2,3.6,29.94,West,261,3.0,3.0,74,0.00,,,0.00,Wunderground v.1.15,2013-02-21 15:11:00,
2013-02-21 10:16:00,10.5,3.6,29.94,SW,218,4.0,4.0,73,0.00,,,0.00,Wunderground v.1.15,2013-02-21 15:16:00,
2013-02-21 10:21:00,11.1,3.8,29.94,WNW,293,4.0,5.0,72,0.00,,,0.00,Wunderground v.1.15,2013-02-21 15:21:00,
2013-02-21 10:30:00,11.0,3.7,29.95,SSW,209,4.0,7.0,72,0.00,,,0.00,Wunderground v.1.15,2013-02-21 15:30:00,
2013-02-21 10:35:00,10.7,3.4,29.95,WNW,289,5.0,7.0,72,0.00,,,0.00,Wunderground v.1.15,2013-02-21 15:35:00,
2013-02-21 10:41:00,11.0,4.3,29.95,North,351,5.0,5.0,74,0.00,,,0.00,Wunderground v.1.15,2013-02-21 15:41:00,
2013-02-21 10:45:00,11.2,4.2,29.95,NW,319,4.0,5.0,73,0.00,,,0.00,Wunderground v.1.15,2013-02-21 15:45:00,
2013-02-21 10:51:00,11.6,4.6,29.96,WNW,285,4.0,4.0,73,0.00,,,0.00,Wunderground v.1.15,2013-02-21 15:51:00,
2013-02-21 11:00:00,11.7,4.1,29.96,NNW,327,4.0,4.0,71,0.00,,,0.00,Wunderground v.1.15,2013-02-21 16:00:00,
2013-02-21 11:05:00,11.8,4.5,29.96,NW,326,6.0,6.0,72,0.00,,,0.00,Wunderground v.1.15,2013-02-21 16:05:00,
2013-02-21 11:10:00,11.9,4.6,29.96,NW,321,5.0,5.0,72,0.00,,,0.00,Wunderground v.1.15,2013-02-21 16:10:00,
2013-02-21 11:21:00,12.1,4.8,29.96,WSW,250,4.0,8.0,72,0.00,,,0.00,Wunderground v.1.15,2013-02-21 16:21:00,
2013-02-21 11:36:00,12.4,5.7,29.97,SW,227,4.0,7.0,74,0.00,,,0.00,Wunderground v.1.15,2013-02-21 16:36:00,
2013-02-21 11:45:00,12.8,6.4,29.97,SW,214,4.0,4.0,75,0.00,,,0.00,Wunderground v.1.15,2013-02-21 16:45:00,
2013-02-21 11:51:00,12.9,5.9,29.97,WNW,294,4.0,5.0,73,0.00,,,0.00,Wunderground v.1.15,2013-02-21 16:51:00,
2013-02-21 11:56:00,12.9,6.2,29.97,WSW,248,4.0,9.0,74,0.00,,,0.00,Wunderground v.1.15,2013-02-21 16:56:00,
2013-02-21 12:01:00,12.7,5.7,29.97,WSW,242,5.0,5.0,73,0.00,,,0.00,Wunderground v.1.15,2013-02-21 17:01:00,
2013-02-21 12:11:00,13.0,6.0,29.97,NNW,347,4.0,4.0,73,0.00,,,0.00,Wunderground v.1.15,2013-02-21 17:11:00,
2013-02-21 12:16:00,13.2,6.2,29.98,WNW,299,4.0,5.0,73,0.00,,,0.00,Wunderground v.1.15,2013-02-21 17:16:00,
2013-02-21 12:21:00,13.2,6.2,29.98,West,279,4.0,5.0,73,0.00,,,0.00,Wunderground v.1.15,2013-02-21 17:21:00,
2013-02-21 12:26:00,13.4,6.4,29.98,SW,220,4.0,5.0,73,0.00,,,0.00,Wunderground v.1.15,2013-02-21 17:26:00,
2013-02-21 12:40:00,13.6,6.2,29.98,West,274,5.0,5.0,72,0.00,,,0.00,Wunderground v.1.15,2013-02-21 17:40:00,
2013-02-21 12:50:00,13.6,6.2,29.99,WSW,237,4.0,4.0,72,0.00,,,0.00,Wunderground v.1.15,2013-02-21 17:50:00,
2013-02-21 12:56:00,13.6,6.5,29.99,West,265,4.0,4.0,73,0.00,,,0.00,Wunderground v.1.15,2013-02-21 17:56:00,
2013-02-21 13:01:00,13.9,6.8,29.99,WSW,237,4.0,5.0,73,0.00,,,0.00,Wunderground v.1.15,2013-02-21 18:01:00,
2013-02-21 13:06:00,14.1,7.3,29.99,WNW,299,4.0,5.0,74,0.00,,,0.00,Wunderground v.1.15,2013-02-21 18:06:00,
2013-02-21 13:21:00,14.6,7.8,29.99,SSW,211,4.0,6.0,74,0.00,,,0.00,Wunderground v.1.15,2013-02-21 18:21:00,
2013-02-21 13:31:00,14.9,7.8,30.00,West,266,4.0,4.0,73,0.00,,,0.00,Wunderground v.1.15,2013-02-21 18:31:00,
2013-02-21 13:41:00,15.2,8.4,30.00,West,273,3.0,3.0,74,0.00,,,0.00,Wunderground v.1.15,2013-02-21 18:41:00,
2013-02-21 13:46:00,15.2,8.4,30.00,WNW,284,3.0,3.0,74,0.00,,,0.00,Wunderground v.1.15,2013-02-21 18:46:00,
2013-02-21 14:01:00,15.8,9.6,30.01,SSE,165,3.0,3.0,76,0.00,,,0.00,Wunderground v.1.15,2013-02-21 19:01:00,
2013-02-21 14:06:00,16.3,10.1,30.01,WSW,240,2.0,5.0,76,0.00,,,0.00,Wunderground v.1.15,2013-02-21 19:06:00,
2013-02-21 14:16:00,16.2,9.7,30.02,North,355,4.0,4.0,75,0.00,,,0.00,Wunderground v.1.15,2013-02-21 19:16:00,
2013-02-21 14:21:00,16.3,9.8,30.02,SW,221,3.0,4.0,75,0.00,,,0.00,Wunderground v.1.15,2013-02-21 19:21:00,
2013-02-21 14:31:00,16.6,10.3,30.03,NNW,336,2.0,2.0,76,0.00,,,0.00,Wunderground v.1.15,2013-02-21 19:31:00,
2013-02-21 14:41:00,16.4,10.4,30.03,WNW,287,4.0,4.0,77,0.00,,,0.00,Wunderground v.1.15,2013-02-21 19:41:00,
2013-02-21 14:46:00,16.7,11.0,30.04,NW,305,2.0,4.0,78,0.00,,,0.00,Wunderground v.1.15,2013-02-21 19:46:00,
2013-02-21 14:51:00,16.9,11.5,30.04,NW,326,2.0,4.0,79,0.00,,,0.00,Wunderground v.1.15,2013-02-21 19:51:00,
2013-02-21 15:01:00,16.7,11.3,30.05,NW,323,4.0,4.0,79,0.00,,,0.00,Wunderground v.1.15,2013-02-21 20:01:00,
2013-02-21 15:06:00,16.6,10.9,30.05,WNW,282,4.0,4.0,78,0.00,,,0.00,Wunderground v.1.15,2013-02-21 20:06:00,
2013-02-21 15:11:00,16.7,11.0,30.05,ESE,105,3.0,3.0,78,0.00,,,0.00,Wunderground v.1.15,2013-02-21 20:11:00,
2013-02-21 15:15:00,16.7,11.0,30.06,NW,321,2.0,3.0,78,0.00,,,0.00,Wunderground v.1.15,2013-02-21 20:15:00,
2013-02-21 15:21:00,16.7,10.7,30.06,WNW,292,2.0,3.0,77,0.00,,,0.00,Wunderground v.1.15,2013-02-21 20:21:00,
2013-02-21 15:26:00,16.8,10.8,30.07,WNW,290,3.0,6.0,77,0.00,,,0.00,Wunderground v.1.15,2013-02-21 20:26:00,
2013-02-21 15:31:00,16.8,10.8,30.07,WNW,300,3.0,5.0,77,0.00,,,0.00,Wunderground v.1.15,2013-02-21 20:31:00,
2013-02-21 15:36:00,16.8,10.8,30.07,NNW,342,3.0,5.0,77,0.00,,,0.00,Wunderground v.1.15,2013-02-21 20:36:00,
2013-02-21 15:40:00,16.9,11.2,30.08,North,5,4.0,6.0,78,0.00,,,0.00,Wunderground v.1.15,2013-02-21 20:40:00,
2013-02-21 15:46:00,16.9,11.2,30.07,East,84,4.0,6.0,78,0.00,,,0.00,Wunderground v.1.15,2013-02-21 20:46:00,
2013-02-21 15:56:00,17.1,11.4,30.08,WNW,289,3.0,4.0,78,0.00,,,0.00,Wunderground v.1.15,2013-02-21 20:56:00,
2013-02-21 16:06:00,16.9,11.2,30.09,NW,325,4.0,5.0,78,0.00,,,0.00,Wunderground v.1.15,2013-02-21 21:06:00,
2013-02-21 16:11:00,16.6,11.2,30.10,NNW,338,4.0,4.0,79,0.00,,,0.00,Wunderground v.1.15,2013-02-21 21:11:00,
2013-02-21 16:16:00,16.4,11.3,30.10,NNW,333,4.0,4.0,80,0.00,,,0.00,Wunderground v.1.15,2013-02-21 21:16:00,
2013-02-21 16:21:00,16.3,11.2,30.10,North,355,3.0,3.0,80,0.00,,,0.00,Wunderground v.1.15,2013-02-21 21:21:00,
2013-02-21 16:30:00,16.4,11.3,30.11,NW,317,3.0,3.0,80,0.00,,,0.00,Wunderground v.1.15,2013-02-21 21:30:00,
2013-02-21 16:35:00,16.4,11.3,30.11,NNW,332,2.0,5.0,80,0.00,,,0.00,Wunderground v.1.15,2013-02-21 21:35:00,
2013-02-21 16:41:00,16.5,11.4,30.12,NNW,332,2.0,2.0,80,0.00,,,0.00,Wunderground v.1.15,2013-02-21 21:41:00,
2013-02-21 16:46:00,16.6,11.5,30.12,NNW,344,2.0,3.0,80,0.00,,,0.00,Wunderground v.1.15,2013-02-21 21:46:00,
2013-02-21 16:51:00,16.7,11.6,30.12,NNW,344,1.0,1.0,80,0.00,,,0.00,Wunderground v.1.15,2013-02-21 21:51:00,
2013-02-21 17:01:00,16.8,11.7,30.13,NNW,347,1.0,1.0,80,0.00,,,0.00,Wunderground v.1.15,2013-02-21 22:01:00,
2013-02-21 17:05:00,16.8,11.7,30.14,NNW,330,1.0,1.0,80,0.00,,,0.00,Wunderground v.1.15,2013-02-21 22:05:00,
2013-02-21 17:11:00,16.7,11.6,30.14,NNW,342,2.0,6.0,80,0.00,,,0.00,Wunderground v.1.15,2013-02-21 22:11:00,
2013-02-21 17:15:00,16.6,11.5,30.13,WNW,284,3.0,6.0,80,0.00,,,0.00,Wunderground v.1.15,2013-02-21 22:15:00,
2013-02-21 17:21:00,16.6,11.5,30.14,SE,134,3.0,3.0,80,0.00,,,0.00,Wunderground v.1.15,2013-02-21 22:21:00,
2013-02-21 17:26:00,16.4,11.3,30.15,NW,325,3.0,3.0,80,0.00,,,0.00,Wunderground v.1.15,2013-02-21 22:26:00,
2013-02-21 17:31:00,16.2,11.1,30.15,North,5,3.0,4.0,80,0.00,,,0.00,Wunderground v.1.15,2013-02-21 22:31:00,
2013-02-21 17:36:00,15.9,11.1,30.15,NNW,342,2.0,4.0,81,0.00,,,0.00,Wunderground v.1.15,2013-02-21 22:36:00,
2013-02-21 17:45:00,15.5,11.0,30.16,SW,225,2.0,2.0,82,0.00,,,0.00,Wunderground v.1.15,2013-02-21 22:45:00,
2013-02-21 17:50:00,15.4,11.2,30.17,NNW,348,2.0,2.0,83,0.00,,,0.00,Wunderground v.1.15,2013-02-21 22:50:00,
2013-02-21 17:56:00,15.4,11.2,30.17,NNW,339,2.0,3.0,83,0.00,,,0.00,Wunderground v.1.15,2013-02-21 22:56:00,
2013-02-21 18:00:00,15.4,11.2,30.17,WNW,303,2.0,2.0,83,0.00,,,0.00,Wunderground v.1.15,2013-02-21 23:00:00,
2013-02-21 18:06:00,15.5,11.3,30.18,NNE,21,2.0,3.0,83,0.00,,,0.00,Wunderground v.1.15,2013-02-21 23:06:00,
2013-02-21 18:11:00,15.7,11.5,30.18,South,179,2.0,2.0,83,0.00,,,0.00,Wunderground v.1.15,2013-02-21 23:11:00,
2013-02-21 18:15:00,16.0,11.7,30.18,WNW,290,2.0,3.0,83,0.00,,,0.00,Wunderground v.1.15,2013-02-21 23:15:00,
2013-02-21 18:21:00,16.3,12.0,30.19,SSW,208,3.0,4.0,83,0.00,,,0.00,Wunderground v.1.15,2013-02-21 23:21:00,
2013-02-21 18:26:00,16.5,12.2,30.19,SE,140,3.0,4.0,83,0.00,,,0.00,Wunderground v.1.15,2013-02-21 23:26:00,
2013-02-21 18:31:00,16.8,12.5,30.19,ESE,115,4.0,4.0,83,0.00,,,0.00,Wunderground v.1.15,2013-02-21 23:31:00,
2013-02-21 18:36:00,17.0,12.7,30.20,WSW,238,4.0,4.0,83,0.00,,,0.00,Wunderground v.1.15,2013-02-21 23:36:00,
2013-02-21 18:41:00,17.0,12.7,30.20,SSE,157,4.0,4.0,83,0.00,,,0.00,Wunderground v.1.15,2013-02-21 23:41:00,
2013-02-21 18:46:00,17.0,12.7,30.20,SSW,192,4.0,6.0,83,0.00,,,0.00,Wunderground v.1.15,2013-02-21 23:46:00,
2013-02-21 18:51:00,16.9,12.9,30.20,SW,223,4.0,4.0,84,0.00,,,0.00,Wunderground v.1.15,2013-02-21 23:51:00,
2013-02-21 18:56:00,16.9,12.9,30.21,West,262,3.0,6.0,84,0.00,,,0.00,Wunderground v.1.15,2013-02-21 23:56:00,
2013-02-21 19:01:00,17.0,13.0,30.21,WNW,298,4.0,4.0,84,0.00,,,0.00,Wunderground v.1.15,2013-02-22 00:01:00,
2013-02-21 19:06:00,17.0,13.0,30.22,NW,319,4.0,4.0,84,0.00,,,0.00,Wunderground v.1.15,2013-02-22 00:06:00,
2013-02-21 19:21:00,17.0,13.0,30.22,NW,325,5.0,5.0,84,0.00,,,0.00,Wunderground v.1.15,2013-02-22 00:21:00,
2013-02-21 19:30:00,17.1,13.1,30.23,WSW,250,4.0,4.0,84,0.00,,,0.00,Wunderground v.1.15,2013-02-22 00:30:00,
2013-02-21 19:35:00,17.1,13.1,30.23,WNW,286,3.0,5.0,84,0.00,,,0.00,Wunderground v.1.15,2013-02-22 00:35:00,
2013-02-21 19:46:00,17.3,13.6,30.24,NNW,327,3.0,3.0,85,0.00,,,0.00,Wunderground v.1.15,2013-02-22 00:46:00,
2013-02-21 19:51:00,17.7,14.0,30.24,ENE,69,4.0,4.0,85,0.00,,,0.00,Wunderground v.1.15,2013-02-22 00:51:00,
2013-02-21 20:01:00,17.9,13.9,30.24,West,262,3.0,3.0,84,0.00,,,0.00,Wunderground v.1.15,2013-02-22 01:01:00,
2013-02-21 20:05:00,18.0,14.3,30.25,NNW,346,3.0,4.0,85,0.00,,,0.00,Wunderground v.1.15,2013-02-22 01:05:00,
2013-02-21 20:10:00,18.1,14.4,30.25,West,280,2.0,2.0,85,0.00,,,0.00,Wunderground v.1.15,2013-02-22 01:10:00,
2013-02-21 20:15:00,18.3,14.5,30.25,NW,319,2.0,2.0,85,0.00,,,0.00,Wunderground v.1.15,2013-02-22 01:15:00,
2013-02-21 20:21:00,18.5,14.7,30.25,SW,217,2.0,2.0,85,0.00,,,0.00,Wunderground v.1.15,2013-02-22 01:21:00,
2013-02-21 20:26:00,18.8,15.0,30.25,SW,219,2.0,2.0,85,0.00,,,0.00,Wunderground v.1.15,2013-02-22 01:26:00,
2013-02-21 20:31:00,18.9,15.1,30.25,NW,311,1.0,2.0,85,0.00,,,0.00,Wunderground v.1.15,2013-02-22 01:31:00,
2013-02-21 20:36:00,19.1,15.3,30.25,West,277,1.0,2.0,85,0.00,,,0.00,Wunderground v.1.15,2013-02-22 01:36:00,
2013-02-21 20:41:00,19.3,15.5,30.25,East,96,2.0,2.0,85,0.00,,,0.00,Wunderground v.1.15,2013-02-22 01:41:00,
2013-02-21 20:45:00,19.5,15.7,30.26,WNW,292,2.0,2.0,85,0.00,,,0.00,Wunderground v.1.15,2013-02-22 01:45:00,
2013-02-21 20:51:00,19.7,15.9,30.26,South,186,3.0,7.0,85,0.00,,,0.00,Wunderground v.1.15,2013-02-22 01:51:00,
2013-02-21 21:01:00,20.0,16.2,30.26,West,265,2.0,2.0,85,0.00,,,0.00,Wunderground v.1.15,2013-02-22 02:01:00,
2013-02-21 21:06:00,20.1,16.3,30.26,West,262,2.0,4.0,85,0.00,,,0.00,Wunderground v.1.15,2013-02-22 02:06:00,
2013-02-21 21:15:00,20.3,16.5,30.27,West,269,2.0,5.0,85,0.00,,,0.00,Wunderground v.1.15,2013-02-22 02:15:00,
2013-02-21 21:20:00,20.3,16.5,30.27,SW,234,2.0,2.0,85,0.00,,,0.00,Wunderground v.1.15,2013-02-22 02:20:00,
2013-02-21 21:26:00,20.4,16.6,30.26,West,269,2.0,2.0,85,0.00,,,0.00,Wunderground v.1.15,2013-02-22 02:26:00,
2013-02-21 21:31:00,20.4,16.6,30.27,West,269,1.0,1.0,85,0.00,,,0.00,Wunderground v.1.15,2013-02-22 02:31:00,
2013-02-21 21:36:00,20.5,16.7,30.27,West,269,1.0,1.0,85,0.00,,,0.00,Wunderground v.1.15,2013-02-22 02:36:00,
2013-02-21 21:41:00,20.5,16.7,30.27,WSW,254,1.0,2.0,85,0.00,,,0.00,Wunderground v.1.15,2013-02-22 02:41:00,
2013-02-21 21:46:00,20.4,16.6,30.27,WSW,250,2.0,2.0,85,0.00,,,0.00,Wunderground v.1.15,2013-02-22 02:46:00,
2013-02-21 21:51:00,20.4,16.6,30.27,WSW,250,2.0,2.0,85,0.00,,,0.00,Wunderground v.1.15,2013-02-22 02:51:00,
2013-02-21 22:00:00,20.3,16.5,30.27,WNW,283,2.0,2.0,85,0.00,,,0.00,Wunderground v.1.15,2013-02-22 03:00:00,
2013-02-21 22:05:00,20.3,16.5,30.26,NW,326,2.0,2.0,85,0.00,,,0.00,Wunderground v.1.15,2013-02-22 03:05:00,
2013-02-21 22:10:00,20.4,16.6,30.27,West,273,2.0,2.0,85,0.00,,,0.00,Wunderground v.1.15,2013-02-22 03:10:00,
2013-02-21 22:16:00,20.4,16.6,30.28,WSW,246,2.0,2.0,85,0.00,,,0.00,Wunderground v.1.15,2013-02-22 03:16:00,
2013-02-21 22:21:00,20.3,16.5,30.29,WSW,257,2.0,2.0,85,0.00,,,0.00,Wunderground v.1.15,2013-02-22 03:21:00,
2013-02-21 22:31:00,20.2,16.4,30.29,NNW,342,2.0,2.0,85,0.00,,,0.00,Wunderground v.1.15,2013-02-22 03:31:00,
2013-02-21 22:35:00,20.2,16.4,30.30,North,355,2.0,2.0,85,0.00,,,0.00,Wunderground v.1.15,2013-02-22 03:35:00,
2013-02-21 22:40:00,20.1,16.3,30.31,NW,315,2.0,4.0,85,0.00,,,0.00,Wunderground v.1.15,2013-02-22 03:40:00,
2013-02-21 22:46:00,20.1,16.3,30.31,SW,232,3.0,4.0,85,0.00,,,0.00,Wunderground v.1.15,2013-02-22 03:46:00,
2013-02-21 22:50:00,20.1,16.3,30.31,WSW,256,2.0,3.0,85,0.00,,,0.00,Wunderground v.1.15,2013-02-22 03:50:00,
2013-02-21 22:56:00,20.1,16.3,30.32,WSW,251,2.0,5.0,85,0.00,,,0.00,Wunderground v.1.15,2013-02-22 03:56:00,
2013-02-21 23:01:00,20.0,16.2,30.32,WSW,248,3.0,4.0,85,0.00,,,0.00,Wunderground v.1.15,2013-02-22 04:01:00,
2013-02-21 23:06:00,20.0,16.5,30.33,WSW,242,4.0,4.0,86,0.00,,,0.00,Wunderground v.1.15,2013-02-22 04:06:00,
2013-02-21 23:11:00,20.2,16.7,30.33,WNW,288,4.0,4.0,86,0.00,,,0.00,Wunderground v.1.15,2013-02-22 04:11:00,
2013-02-21 23:16:00,20.3,16.8,30.33,NW,309,3.0,4.0,86,0.00,,,0.00,Wunderground v.1.15,2013-02-22 04:16:00,
2013-02-21 23:20:00,20.4,16.9,30.34,WNW,299,2.0,2.0,86,0.00,,,0.00,Wunderground v.1.15,2013-02-22 04:20:00,
2013-02-21 23:26:00,20.6,17.1,30.34,SW,229,1.0,2.0,86,0.00,,,0.00,Wunderground v.1.15,2013-02-22 04:26:00,
2013-02-21 23:31:00,20.7,17.2,30.34,NNW,337,1.0,2.0,86,0.00,,,0.00,Wunderground v.1.15,2013-02-22 04:31:00,
2013-02-21 23:35:00,20.8,17.3,30.34,West,280,2.0,2.0,86,0.00,,,0.00,Wunderground v.1.15,2013-02-22 04:35:00,
2013-02-21 23:40:00,20.9,17.1,30.34,West,281,2.0,2.0,85,0.00,,,0.00,Wunderground v.1.15,2013-02-22 04:40:00,
2013-02-21 23:45:00,20.9,17.1,30.35,West,277,1.0,1.0,85,0.00,,,0.00,Wunderground v.1.15,2013-02-22 04:45:00,
2013-02-21 23:50:00,21.0,17.2,30.37,SW,223,2.0,3.0,85,0.00,,,0.00,Wunderground v.1.15,2013-02-22 04:50:00,